createdAt,value
2022-08-22T00:06:51.220Z,99766.47
2022-08-22T00:17:05.238Z,99773.44
2022-08-22T00:27:12.738Z,99767.97
2022-08-22T00:37:37.458Z,99767.16
2022-08-22T00:47:52.095Z,99774.19
2022-08-22T00:58:22.453Z,99772.34
2022-08-22T01:08:30.687Z,99780.13
2022-08-22T01:18:50.402Z,99780.41
2022-08-22T01:29:27.771Z,99787.75
2022-08-22T01:39:58.605Z,99779.22
2022-08-22T01:50:21.216Z,99778.31
2022-08-22T02:00:34.530Z,99786.59
2022-08-22T02:11:13.462Z,99778.41
2022-08-22T02:21:32.761Z,99773.97
2022-08-22T02:31:53.918Z,99789.94
2022-08-22T02:42:26.276Z,99782.66
2022-08-22T02:53:00.248Z,99782.41
2022-08-22T03:03:14.514Z,99784.31
2022-08-22T03:13:38.292Z,99784.81
2022-08-22T03:23:49.487Z,99786.06
2022-08-22T03:34:22.750Z,99793.13
2022-08-22T03:44:54.314Z,99793.09
2022-08-22T03:55:34.538Z,99806.06
2022-08-22T04:05:45.887Z,99818.75
2022-08-22T04:16:03.253Z,99828.59
2022-08-22T04:26:12.983Z,99839.13
2022-08-22T04:36:22.419Z,99853.06
2022-08-22T04:46:41.705Z,99858.72
2022-08-22T04:57:21.389Z,99873.50
2022-08-22T05:07:36.255Z,99877.78
2022-08-22T05:17:40.591Z,99878.22
2022-08-22T05:27:48.789Z,99881.34
2022-08-22T05:37:56.263Z,99881.25
2022-08-22T05:48:18.743Z,99903.16
2022-08-22T05:58:40.017Z,99898.44
2022-08-22T06:08:48.292Z,99918.59
2022-08-22T06:18:52.413Z,99916.19
2022-08-22T06:28:58.858Z,99923.84
2022-08-22T06:39:25.083Z,99928.41
2022-08-22T06:49:32.877Z,99934.97
2022-08-22T06:59:41.133Z,99932.81
2022-08-22T07:09:44.190Z,99954.19
2022-08-22T07:20:05.966Z,99953.47
2022-08-22T07:30:15.210Z,99940.72
2022-08-22T07:40:21.109Z,99941.19
2022-08-22T07:50:28.736Z,99929.66
2022-08-22T08:00:37.669Z,99929.88
2022-08-22T08:10:41.226Z,99929.50
2022-08-22T08:20:43.734Z,99923.38
2022-08-22T08:30:59.212Z,99928.16
2022-08-22T08:41:19.710Z,99929.97
2022-08-22T08:51:24.887Z,99926.03
2022-08-22T09:12:26.938Z,99916.31
2022-08-22T09:22:50.856Z,99918.66
2022-08-22T09:33:14.358Z,99914.44
2022-08-22T09:40:15.325Z,99911.34
2022-08-22T09:43:34.681Z,99914.84
2022-08-22T09:53:43.025Z,99905.41
2022-08-22T10:03:45.492Z,99898.03
2022-08-22T10:14:26.040Z,99894.38
2022-08-22T10:25:00.240Z,99894.63
2022-08-22T10:35:21.371Z,99889.00
2022-08-22T10:45:35.512Z,99875.66
2022-08-22T10:55:43.526Z,99873.03
2022-08-22T11:05:50.230Z,99862.44
2022-08-22T11:16:18.821Z,99843.56
2022-08-22T11:26:38.502Z,99836.84
2022-08-22T11:36:56.230Z,99838.78
2022-08-22T11:47:07.487Z,99829.16
2022-08-22T11:57:18.270Z,99812.56
2022-08-22T12:07:39.655Z,99808.09
2022-08-22T12:18:08.471Z,99786.13
2022-08-22T12:28:48.447Z,99752.66
2022-08-22T12:39:24.584Z,99735.94
2022-08-22T12:50:01.366Z,99729.72
2022-08-22T13:00:26.877Z,99732.50
2022-08-22T13:10:44.790Z,99716.22
2022-08-22T13:20:50.859Z,99729.53
2022-08-22T13:30:54.605Z,99698.06
2022-08-22T13:41:00.084Z,99736.91
2022-08-22T13:51:11.687Z,99803.56
2022-08-22T14:01:31.496Z,99808.88
2022-08-22T14:11:51.147Z,99895.31
2022-08-22T14:22:09.254Z,99934.94
2022-08-22T14:32:25.810Z,100005.56
2022-08-22T14:42:44.403Z,99988.91
2022-08-22T14:52:49.293Z,99992.63
2022-08-22T15:02:52.256Z,100012.34
2022-08-22T15:13:00.937Z,100006.66
2022-08-22T15:23:16.039Z,100028.59
2022-08-22T15:33:23.949Z,100017.03
2022-08-22T15:43:34.961Z,100018.66
2022-08-22T15:53:44.802Z,99984.88
2022-08-22T16:04:15.570Z,99962.81
2022-08-22T16:14:41.764Z,99950.97
2022-08-22T16:25:01.558Z,99910.53
2022-08-22T16:35:05.065Z,99936.41
2022-08-22T16:45:29.920Z,99935.03
2022-08-22T16:55:36.123Z,99981.22
2022-08-22T17:05:51.543Z,100004.66
2022-08-22T17:16:10.149Z,100008.84
2022-08-22T17:26:33.400Z,99984.53
2022-08-22T17:36:48.267Z,99999.25
2022-08-22T17:47:19.099Z,100035.41
2022-08-22T17:57:30.794Z,100032.50
2022-08-22T18:07:45.182Z,100045.63
2022-08-22T18:17:57.925Z,100065.72
2022-08-22T18:28:12.160Z,100074.44
2022-08-22T18:38:36.613Z,100081.66
2022-08-22T18:49:13.727Z,100079.53
2022-08-22T18:59:29.362Z,100080.63
2022-08-22T19:09:50.551Z,100079.63
2022-08-22T19:20:28.182Z,100101.81
2022-08-22T19:30:42.792Z,100097.91
2022-08-22T19:40:45.940Z,100094.59
2022-08-22T19:51:26.191Z,100100.44
2022-08-22T20:01:57.480Z,100093.50
2022-08-22T20:12:18.891Z,100098.28
2022-08-22T20:22:33.998Z,100081.91
2022-08-22T20:32:44.184Z,100088.06
2022-08-22T20:42:50.702Z,100083.59
2022-08-22T20:53:14.990Z,100085.56
2022-08-22T21:03:42.475Z,100074.09
2022-08-22T21:13:45.728Z,100085.69
2022-08-22T21:24:09.447Z,100097.56
2022-08-22T21:34:17.675Z,100110.66
2022-08-22T21:44:33.997Z,100105.72
2022-08-22T21:54:40.405Z,100115.00
2022-08-22T22:04:43.572Z,100118.03
2022-08-22T22:14:51.955Z,100119.94
2022-08-22T22:24:54.386Z,100125.38
2022-08-22T22:34:56.806Z,100117.69
2022-08-22T22:44:59.474Z,100124.25
2022-08-22T22:55:01.908Z,100141.44
2022-08-22T23:05:08.001Z,100135.03
2022-08-22T23:15:11.685Z,100135.41
2022-08-22T23:25:15.746Z,100138.50
2022-08-22T23:35:18.459Z,100145.25
2022-08-22T23:45:21.803Z,100142.63
2022-08-22T23:55:24.248Z,100151.47
